Interbay, Washington
Current Conditions -  °F | °C
As of 1:53 PM on Sunday 23 Nov 2014 (Local Time) from KBFI Reporting Station
Scattered Clouds Scattered Clouds  
Wind Chill: 57°   Ceiling: Unl
Heat Index: 57°   Visibility: 10mi
Dew Point: 44°   Wind: 7mph
Humidity: 62%   Direction: 180°S
Pressure: 30.15"   Gusts: NA
Location:  47.6388°N, 122.37°W
Report Text: KBFI 232153Z 18006KT 10SM SCT030 14/07 A3015 RMK AO2 SLP209 T01390067
Loading
Personal Weather Stations






























Interactive Weather Map New forecast layout! Learn more

10-Day Weather Forecast

Advertisements
Track Severe Weather on mobile